This is the latest recevied weather packets stored in our database for station/object KI4LFI. If no packets are shown the sender has not sent any weather packets the latest 10 day(s).
| Time | Temp. | Humidity | Pressure | Rain* | Wind** | Luminosity | Snow |
|---|---|---|---|---|---|---|---|
| 1777713337 | 11.11° C | 100% | 1011.1 hPa | 5.33 mm | - | - | - |
| 1777698938 | 12.22° C | 100% | 1012.5 hPa | 2.29 mm | - | - | - |
| 1777692639 | 12.22° C | 100% | 1012.8 hPa | 4.57 mm | - | - | - |
| 1777690837 | 11.67° C | 100% | 1013.5 hPa | 4.32 mm | - | - | - |
| 1777686337 | 11.67° C | 99% | 1014.1 hPa | 2.54 mm | - | - | - |
| 1777681843 | 12.22° C | 98% | 1013.2 hPa | 8.38 mm | - | - | - |
| 1777680935 | 13.33° C | 100% | 1013.3 hPa | 8.38 mm | - | - | - |
| 1777680061 | 13.33° C | 99% | 1012.9 hPa | 7.87 mm | - | - | - |
| 1777672842 | 15.56° C | 95% | 1012.1 hPa | 0.51 mm | - | - | - |
| 1777671046 | 16.11° C | 92% | 1011.9 hPa | 0 mm | - | - | - |
| 1777670142 | 16.67° C | 93% | 1011.6 hPa | 0 mm | - | - | - |
| 1777667438 | 16.67° C | 95% | 1011.8 hPa | 0 mm | - | - | - |
| 1777661145 | 16.67° C | 95% | 1013.4 hPa | 0 mm | - | - | - |
| 1777658444 | 16.67° C | 91% | 1014 hPa | 0 mm | - | - | - |
| 1777654835 | 16.67° C | 95% | 1014.2 hPa | 0 mm | - | - | - |
| 1777653043 | 16.67° C | 93% | 1014.7 hPa | 0 mm | - | - | - |
| 1777652141 | 16.67° C | 92% | 1014.8 hPa | 0 mm | - | - | - |
| 1777651237 | 17.22° C | 93% | 1014.5 hPa | 0 mm | - | - | - |
| 1777648535 | 16.67° C | 92% | 1014.1 hPa | 0 mm | - | - | - |
| 1777643163 | 16.67° C | 93% | 1013.3 hPa | 0 mm | - | - | - |
| 1777639553 | 16.11° C | 95% | 1013.3 hPa | 0 mm | - | - | - |
| 1777636838 | 16.11° C | 97% | 1012.9 hPa | 0.25 mm | - | - | - |
| 1777635044 | 16.11° C | 98% | 1012.3 hPa | 0.25 mm | - | - | - |
| 1777631436 | 16.11° C | 97% | 1012.2 hPa | 0 mm | - | - | - |
| 1777630538 | 16.11° C | 98% | 1011.8 hPa | 0 mm | - | - | - |
* Rain latest hour (hover to see other rain measurements)
** Current wind speed in m/s (hover to see current wind gust speed)